Fremont, MI (49413)

9:24 PM EDT on March 27, 2015 (GMT -0400)
Fremont | | Change Station
CLOSE
Current Station
Personal Weather Station
Location: Fremont, MI
Elevation: 817 ft
Nearby Weather Stations

Elev 817 ft 43.47 °N, 85.95 °W | Updated 10 minutes ago

Clear
Clear
19.0 °F
Feels Like 13 °F
N
3.7
Wind Variable Wind from NW

Today
High -- | Low -- °F
--% Chance of Precip.
Yesterday
High -- | Low -- °F
Precip. -- in
7:34 AM 8:04 PM
First Quarter, 57% visible
Pressure 30.16 in
Visibility 10.0 miles
Clouds Clear
Windchill 13 °F
Dew Point -1 °F
Humidity 40%
Rainfall 0.00 in
Snow Depth Not available.
UV 0 out of 12
Pollen .70 out of 12
Air Quality Not available.
Flu Activity Not available.
METAR KFFX 280115Z AUTO 01006KT 10SM CLR M06/M21 A3016 RMK AO2 T10651209

More Conditions Fewer Conditions

Pressure 30.16 in
Visibility 10.0 miles
Clouds Clear
Windchill 13 °F
Dew Point -1 °F
Humidity 40%
Rainfall 0.00 in
Snow Depth Not available.
UV 0 out of 12
Pollen .70 out of 12
Air Quality Not available.
Flu Activity Not available.
METAR KFFX 280115Z AUTO 01006KT 10SM CLR M06/M21 A3016 RMK AO2 T10651209

More Conditions Fewer Conditions

10-Day Weather Forecast

Almanac

Astronomy

Mar. 27, 2015 Rise Set
Actual Time
Civil Twilight
Nautical Twilight
Astronomical Twilight
Moon
Length of Visible Light
Length of Day
Tomorrow will be .
, % of the Moon is Illuminated

Today's Extremes

State Highs State Lows

Community

WunderPhotos

Upload Photos

1,808,906 photos uploaded!

WunderBlogs® & News

Nearby

Air Quality

  Air Quality AQ Index Pollutant
Not available.

Snow Depth

Station Depth Elevation

Earthquake Activity

City Distance Mag. Time & Date
Minimum magnitude displayed is 2.5.

Coastal Water Temperatures

Place Temperature

Stations

Nearby Weather Stations

Station Location Temp. Windchill Dew Point Humidity Wind Precip. Elev Updated Type